Time;durP1;ratioP1;P1;durP2;ratioP2;P2;SDS_P1;SDS_P2;PMS_P1;PMS_P2;Temp;Humidity;BMP_temperature;BMP_pressure;BME280_temperature;BME280_humidity;BME280_pressure;Samples;Min_cycle;Max_cycle;Signal;HPM_P1;HPM_P2
2021/08/27 00:00:17;;;;;;;6.90;1.48;;;;;;;12.66;87.22;101323.66;5003502;28;20046;-63
2021/08/27 00:02:44;;;;;;;7.80;1.85;;;;;;;12.66;87.43;101323.66;4999512;28;20151;-62
2021/08/27 00:05:11;;;;;;;7.53;1.83;;;;;;;12.69;87.35;101317.50;5004081;28;20500;-64
2021/08/27 00:07:37;;;;;;;5.70;1.33;;;;;;;12.69;87.52;101305.31;4999755;28;20061;-62
2021/08/27 00:10:06;;;;;;;8.60;1.33;;;;;;;12.72;87.58;101310.50;4998180;28;20053;-63
2021/08/27 00:12:35;;;;;;;5.80;1.10;;;;;;;12.70;87.70;101303.56;4995226;28;20054;-64
2021/08/27 00:15:02;;;;;;;12.82;1.63;;;;;;;12.73;87.60;101311.34;5000446;28;20046;-63
2021/08/27 00:17:30;;;;;;;7.95;1.63;;;;;;;12.69;87.60;101305.31;4997278;28;20062;-64
2021/08/27 00:19:57;;;;;;;7.38;1.30;;;;;;;12.70;87.78;101301.84;5000701;28;20468;-64
2021/08/27 00:22:24;;;;;;;6.90;1.30;;;;;;;12.75;87.28;101305.19;5006238;28;20073;-63
2021/08/27 00:24:50;;;;;;;7.03;1.40;;;;;;;12.72;87.64;101297.44;5000719;28;20515;-64
2021/08/27 00:27:18;;;;;;;11.70;2.05;;;;;;;12.66;87.94;101294.09;5006822;28;20050;-63
2021/08/27 00:29:44;;;;;;;10.60;2.00;;;;;;;12.63;88.16;101305.44;5003995;28;20058;-63
2021/08/27 00:32:11;;;;;;;6.43;1.55;;;;;;;12.60;88.37;101300.28;4999481;28;20101;-63
2021/08/27 00:34:37;;;;;;;8.15;1.50;;;;;;;12.64;88.34;101301.94;5000954;28;20139;-63
2021/08/27 00:37:05;;;;;;;6.65;1.52;;;;;;;12.60;88.48;101301.13;5004521;28;20050;-63
2021/08/27 00:39:31;;;;;;;5.75;1.60;;;;;;;12.59;88.61;101304.63;4996731;28;20049;-64
2021/08/27 00:41:58;;;;;;;7.10;1.80;;;;;;;12.65;88.32;101305.41;5000172;28;20057;-64
2021/08/27 00:44:26;;;;;;;8.35;1.48;;;;;;;12.68;87.70;101302.72;5002207;28;20161;-63
2021/08/27 00:46:53;;;;;;;7.65;2.47;;;;;;;12.64;87.86;101301.09;4997700;28;20478;-63
2021/08/27 00:49:19;;;;;;;10.55;1.80;;;;;;;12.57;88.22;101298.59;5000420;28;20566;-64
2021/08/27 00:51:46;;;;;;;9.30;1.83;;;;;;;12.53;88.91;101304.75;4999097;28;20058;-63
2021/08/27 00:54:12;;;;;;;12.93;2.13;;;;;;;12.52;89.18;101310.84;4997360;28;20056;-63
2021/08/27 00:56:39;;;;;;;6.38;1.85;;;;;;;12.53;89.04;101298.66;5002149;28;20048;-63
2021/08/27 00:59:05;;;;;;;14.85;2.40;;;;;;;12.49;89.54;101304.84;5003361;28;22183;-63
2021/08/27 01:01:33;;;;;;;5.90;1.63;;;;;;;12.41;90.01;101298.00;4998193;28;20050;-63
2021/08/27 01:04:00;;;;;;;10.10;1.60;;;;;;;12.40;90.17;101298.03;5001486;28;20532;-63
2021/08/27 01:06:35;;;;;;;6.18;1.63;;;;;;;12.43;90.27;101301.44;4995354;28;20057;-63
2021/08/27 01:09:04;;;;;;;8.68;1.35;;;;;;;12.35;90.75;101299.88;4995903;28;20687;-63
2021/08/27 01:11:36;;;;;;;10.63;1.65;;;;;;;12.30;90.84;101297.34;4998263;28;20397;-63
2021/08/27 01:14:05;;;;;;;12.13;1.88;;;;;;;12.25;91.25;101293.94;5004036;28;20097;-64
2021/08/27 01:16:41;;;;;;;8.07;1.85;;;;;;;12.20;91.30;101286.19;4996983;28;20460;-63
2021/08/27 01:19:35;;;;;;;14.68;1.90;;;;;;;12.21;91.71;101287.91;5003395;28;20042;-63
2021/08/27 01:22:20;;;;;;;8.27;1.52;;;;;;;12.19;91.64;101297.50;4993847;28;20046;-64
2021/08/27 01:24:47;;;;;;;12.23;1.63;;;;;;;12.22;91.74;101297.47;4998833;28;20065;-63
2021/08/27 01:27:18;;;;;;;6.93;1.55;;;;;;;12.23;91.71;101295.69;5001005;28;20109;-64
2021/08/27 01:29:50;;;;;;;9.60;1.80;;;;;;;12.25;91.58;101291.31;5000998;28;20053;-63
2021/08/27 01:32:26;;;;;;;7.75;1.55;;;;;;;12.28;91.62;101294.75;5001668;28;20050;-64
2021/08/27 01:34:54;;;;;;;10.10;1.80;;;;;;;12.31;91.37;101288.63;5001549;28;20048;-64
2021/08/27 01:37:23;;;;;;;8.48;1.55;;;;;;;12.27;91.26;101287.81;4996665;28;20053;-64
2021/08/27 01:39:53;;;;;;;6.65;1.50;;;;;;;12.23;91.72;101291.38;5002364;28;20046;-62
2021/08/27 01:42:23;;;;;;;10.15;1.85;;;;;;;12.25;91.83;101291.31;4997538;28;20046;-64
2021/08/27 01:44:50;;;;;;;8.57;1.40;;;;;;;12.25;91.92;101294.81;4996833;28;20049;-65
2021/08/27 01:47:21;;;;;;;7.97;1.73;;;;;;;12.28;91.76;101289.53;5003819;28;20053;-64
2021/08/27 01:49:49;;;;;;;7.80;1.58;;;;;;;12.25;91.78;101289.59;5003384;28;20049;-63
2021/08/27 01:52:18;;;;;;;9.55;1.73;;;;;;;12.32;92.15;101300.78;5004864;28;20058;-64
2021/08/27 01:54:46;;;;;;;11.90;1.98;;;;;;;12.41;91.67;101295.41;4996964;28;20054;-64
2021/08/27 01:57:14;;;;;;;7.28;1.10;;;;;;;12.44;91.64;101290.09;4996209;28;20109;-64
2021/08/27 01:59:42;;;;;;;9.93;1.20;;;;;;;12.43;91.90;101291.00;5002842;28;20050;-64
2021/08/27 02:02:11;;;;;;;7.43;1.77;;;;;;;12.45;91.94;101291.00;4998967;28;20069;-63
2021/08/27 02:04:41;;;;;;;8.20;1.65;;;;;;;12.47;92.03;101290.94;5002438;28;20523;-64
2021/08/27 02:07:08;;;;;;;14.65;1.70;;;;;;;12.46;92.13;101287.50;4992978;28;20077;-64
2021/08/27 02:09:37;;;;;;;9.50;1.50;;;;;;;12.49;92.13;101287.41;5001639;28;20145;-64
2021/08/27 02:12:05;;;;;;;12.80;1.88;;;;;;;12.52;92.16;101292.59;5006802;28;20050;-64
2021/08/27 02:14:32;;;;;;;4.75;1.73;;;;;;;12.58;92.12;101296.84;5002937;28;20400;-64
2021/08/27 02:16:59;;;;;;;9.32;1.95;;;;;;;12.56;91.86;101291.66;5004431;28;20049;-64
2021/08/27 02:19:25;;;;;;;7.15;1.70;;;;;;;12.58;91.99;101299.44;5005915;28;20050;-64
2021/08/27 02:21:56;;;;;;;6.88;1.40;;;;;;;12.60;92.07;101300.28;5009255;28;20100;-64
2021/08/27 02:24:27;;;;;;;6.80;1.52;;;;;;;12.58;92.39;101295.06;5005701;28;20104;-64
2021/08/27 02:26:56;;;;;;;10.88;2.45;;;;;;;12.56;92.34;101303.81;5000976;28;20503;-64
2021/08/27 02:29:25;;;;;;;10.50;2.00;;;;;;;12.56;92.30;101309.03;5006057;28;20095;-64
2021/08/27 02:31:58;;;;;;;10.70;2.42;;;;;;;12.60;92.22;101300.28;5005325;28;20045;-64
2021/08/27 02:34:26;;;;;;;10.23;1.88;;;;;;;12.57;92.40;101300.34;5000853;28;20038;-63
2021/08/27 02:36:56;;;;;;;9.32;1.63;;;;;;;12.56;92.53;101301.22;5004719;28;20407;-65
2021/08/27 02:39:25;;;;;;;10.18;1.98;;;;;;;12.46;92.70;101304.88;5002941;28;20411;-64
2021/08/27 02:41:53;;;;;;;10.40;1.92;;;;;;;12.46;92.85;101297.94;5002460;28;20054;-64
2021/08/27 02:44:20;;;;;;;10.02;1.65;;;;;;;12.47;92.71;101298.78;5009106;28;20042;-64
2021/08/27 02:46:47;;;;;;;8.70;2.55;;;;;;;12.44;92.75;101299.69;5003625;28;20235;-64
2021/08/27 02:49:14;;;;;;;11.32;1.88;;;;;;;12.49;92.41;101299.63;5002462;28;20054;-64
2021/08/27 02:51:46;;;;;;;8.65;1.60;;;;;;;12.46;92.56;101307.50;5000900;28;20412;-64
2021/08/27 02:54:16;;;;;;;8.50;1.40;;;;;;;12.41;92.68;101303.22;5002609;28;20061;-64
2021/08/27 02:56:45;;;;;;;9.38;2.25;;;;;;;12.39;92.94;101312.81;5011109;28;20116;-64
2021/08/27 02:59:15;;;;;;;8.18;1.58;;;;;;;12.33;93.16;101310.31;5000972;28;20054;-64
2021/08/27 03:01:50;;;;;;;13.50;1.92;;;;;;;12.31;93.18;101309.50;5009441;28;20061;-65
2021/08/27 03:04:28;;;;;;;16.38;1.92;;;;;;;12.33;93.28;101310.31;5004958;28;20504;-64
2021/08/27 03:07:00;;;;;;;8.35;1.38;;;;;;;12.28;93.46;101306.94;4999972;28;20046;-63
2021/08/27 03:09:31;;;;;;;8.32;1.60;;;;;;;12.24;93.71;101306.13;5001904;28;20420;-63
2021/08/27 03:12:02;;;;;;;9.30;2.30;;;;;;;12.25;93.58;101310.47;4998625;28;20096;-64
2021/08/27 03:14:32;;;;;;;11.48;2.53;;;;;;;12.20;94.27;101311.44;5001899;28;20137;-63
2021/08/27 03:17:04;;;;;;;9.90;1.70;;;;;;;12.14;94.56;101304.56;5002251;28;20070;-64
2021/08/27 03:19:39;;;;;;;12.93;2.40;;;;;;;12.14;94.58;101315.00;5026626;22;20072;-67
2021/08/27 03:22:07;;;;;;;;;;;;;;;12.15;94.99;101313.22;5004513;28;20041;-67
2021/08/27 03:24:35;;;;;;;12.27;1.70;;;;;;;12.12;95.20;101304.59;5010633;28;19921;-67
2021/08/27 03:27:05;;;;;;;9.52;1.67;;;;;;;12.15;95.17;101303.69;5010119;28;20064;-67
2021/08/27 03:29:37;;;;;;;9.10;1.58;;;;;;;12.20;95.33;101299.22;5007570;28;20074;-67
2021/08/27 03:32:07;;;;;;;11.07;2.17;;;;;;;12.21;95.45;101297.50;5007487;28;20046;-67
2021/08/27 03:34:35;;;;;;;6.43;1.80;;;;;;;12.25;95.07;101301.75;5011802;28;20049;-68
2021/08/27 03:37:03;;;;;;;11.30;1.98;;;;;;;12.23;95.49;101293.09;5010409;28;20042;-67
2021/08/27 03:39:31;;;;;;;10.15;2.55;;;;;;;12.19;95.47;101299.25;5010382;28;20114;-68
2021/08/27 03:42:01;;;;;;;8.20;1.75;;;;;;;12.21;95.62;101297.50;5009388;28;20069;-67
2021/08/27 03:44:29;;;;;;;10.52;1.52;;;;;;;12.24;95.14;101297.44;5011707;28;20053;-67
2021/08/27 03:46:55;;;;;;;13.18;1.90;;;;;;;12.19;95.60;101302.72;5009838;28;20058;-67
2021/08/27 03:49:23;;;;;;;9.90;1.67;;;;;;;12.22;95.63;101302.69;5010042;28;20161;-67
2021/08/27 03:51:50;;;;;;;8.45;1.60;;;;;;;12.20;95.86;101307.06;5009577;28;20057;-68
2021/08/27 03:54:18;;;;;;;12.25;1.88;;;;;;;12.23;95.49;101304.41;5005984;28;20049;-68
2021/08/27 03:56:45;;;;;;;10.93;1.75;;;;;;;12.25;95.60;101301.75;5007181;28;20049;-67
2021/08/27 03:59:13;;;;;;;12.45;1.80;;;;;;;12.30;95.42;101305.16;5009858;28;20053;-67
2021/08/27 04:01:39;;;;;;;11.38;2.90;;;;;;;12.28;95.46;101309.53;5005168;28;20061;-68
2021/08/27 04:04:06;;;;;;;8.95;2.20;;;;;;;12.25;95.54;101309.59;5013770;28;20049;-67
2021/08/27 04:06:34;;;;;;;13.32;1.90;;;;;;;12.31;95.62;101314.72;5009532;28;20133;-67
2021/08/27 04:09:01;;;;;;;9.77;1.83;;;;;;;12.30;95.69;101310.38;5010381;28;20515;-67
2021/08/27 04:11:27;;;;;;;11.40;1.90;;;;;;;12.31;95.65;101306.00;5009243;28;20053;-67
2021/08/27 04:13:54;;;;;;;11.95;1.63;;;;;;;12.33;95.61;101306.84;5007373;28;20072;-67
2021/08/27 04:16:20;;;;;;;9.45;2.03;;;;;;;12.31;95.51;101319.94;5006076;28;20053;-67
2021/08/27 04:18:47;;;;;;;8.77;2.53;;;;;;;12.32;95.66;101308.63;5006519;28;20065;-67
2021/08/27 04:21:13;;;;;;;10.23;2.20;;;;;;;12.28;95.61;101312.16;5005867;28;20049;-68
2021/08/27 04:23:41;;;;;;;11.45;1.48;;;;;;;12.24;96.03;101302.66;5015273;28;20430;-68
2021/08/27 04:26:07;;;;;;;9.52;1.60;;;;;;;12.27;96.03;101300.88;5011346;28;20050;-67
2021/08/27 04:28:34;;;;;;;14.50;1.67;;;;;;;12.23;96.03;101307.00;5010716;28;20131;-68
2021/08/27 04:31:00;;;;;;;8.15;1.83;;;;;;;12.23;96.10;101311.34;5014435;28;20041;-66
2021/08/27 04:33:27;;;;;;;13.10;2.10;;;;;;;12.24;96.10;101315.69;5017287;28;20049;-68
2021/08/27 04:35:53;;;;;;;13.32;1.83;;;;;;;12.25;96.04;101323.50;5011666;28;20053;-69
2021/08/27 04:38:20;;;;;;;11.23;2.33;;;;;;;12.27;95.90;101315.63;5009100;28;20097;-68
2021/08/27 04:40:48;;;;;;;8.60;1.77;;;;;;;12.32;95.35;101313.84;5012333;28;20442;-68
2021/08/27 04:43:14;;;;;;;11.25;1.83;;;;;;;12.31;95.53;101314.72;5014253;28;20057;-68
2021/08/27 04:45:40;;;;;;;11.57;2.20;;;;;;;12.34;95.12;101317.25;5017805;28;20050;-68
2021/08/27 04:48:07;;;;;;;13.70;1.92;;;;;;;12.30;95.54;101323.44;5006600;28;20564;-66
2021/08/27 04:50:34;;;;;;;11.35;2.00;;;;;;;12.33;95.50;101323.34;5017095;28;20100;-68
2021/08/27 04:53:00;;;;;;;8.82;1.50;;;;;;;12.34;95.51;101317.25;5018755;28;20056;-68
2021/08/27 04:55:27;;;;;;;9.23;1.70;;;;;;;12.31;95.88;101319.94;5009803;28;20058;-68
2021/08/27 04:57:54;;;;;;;8.10;1.70;;;;;;;12.29;95.79;101313.88;5009336;28;20045;-66
2021/08/27 05:00:21;;;;;;;8.13;1.73;;;;;;;12.34;95.54;101313.78;5013596;28;20050;-68
2021/08/27 05:02:47;;;;;;;9.70;1.50;;;;;;;12.38;95.46;101307.63;5012532;28;20508;-68
2021/08/27 05:05:14;;;;;;;11.00;2.70;;;;;;;12.39;95.44;101323.25;5009454;28;20053;-67
2021/08/27 05:07:40;;;;;;;10.40;2.35;;;;;;;12.35;95.58;101321.59;5002896;28;20051;-68
2021/08/27 05:10:07;;;;;;;10.00;1.73;;;;;;;12.39;95.63;101323.25;5004599;28;20058;-68
2021/08/27 05:12:34;;;;;;;10.23;1.70;;;;;;;12.39;95.42;101328.47;5009685;28;20049;-68
2021/08/27 05:15:03;;;;;;;8.88;1.92;;;;;;;12.40;95.50;101325.00;5007528;28;20525;-68
2021/08/27 05:17:29;;;;;;;9.18;2.10;;;;;;;12.47;94.89;101330.09;5011223;28;20528;-68
2021/08/27 05:19:56;;;;;;;9.48;2.20;;;;;;;12.47;94.97;101333.56;5015217;28;20049;-65
2021/08/27 05:22:22;;;;;;;10.90;2.53;;;;;;;12.44;95.30;101325.78;5020019;28;20511;-68
2021/08/27 05:24:49;;;;;;;15.32;1.95;;;;;;;12.37;95.74;101332.84;5015833;28;20045;-68
2021/08/27 05:27:15;;;;;;;14.40;1.80;;;;;;;12.38;95.76;101336.31;5006796;28;20058;-68
2021/08/27 05:29:42;;;;;;;14.15;2.13;;;;;;;12.42;95.89;101341.47;5012275;28;20553;-68
2021/08/27 05:32:10;;;;;;;8.48;2.10;;;;;;;12.46;95.54;101344.91;5011824;28;20058;-68
2021/08/27 05:34:37;;;;;;;10.98;1.88;;;;;;;12.49;95.81;101343.97;5009496;28;20045;-68
2021/08/27 05:37:04;;;;;;;8.63;2.03;;;;;;;12.55;95.38;101338.63;5015310;28;20046;-69
2021/08/27 05:39:30;;;;;;;11.40;1.92;;;;;;;12.61;94.94;101341.16;5017542;28;20053;-68
2021/08/27 05:41:59;;;;;;;6.57;1.65;;;;;;;12.67;95.13;101342.78;5019597;28;20515;-68
2021/08/27 05:44:26;;;;;;;8.80;1.88;;;;;;;12.70;95.22;101347.94;5018320;28;20068;-68
2021/08/27 05:46:52;;;;;;;10.23;1.50;;;;;;;12.87;94.39;101347.63;5010584;28;20065;-68
2021/08/27 05:49:21;;;;;;;11.70;1.98;;;;;;;12.84;94.26;101345.06;5015506;28;20075;-68
2021/08/27 05:51:47;;;;;;;13.07;2.42;;;;;;;12.86;94.78;101343.28;5016723;28;20058;-68
2021/08/27 05:54:14;;;;;;;11.05;2.38;;;;;;;12.87;94.47;101351.13;5020115;28;20053;-68
2021/08/27 05:56:40;;;;;;;8.57;1.73;;;;;;;12.88;94.54;101347.59;5010165;28;20044;-69
2021/08/27 05:59:07;;;;;;;11.68;1.92;;;;;;;12.99;94.16;101344.78;5020491;28;20049;-67
2021/08/27 06:01:33;;;;;;;11.85;2.63;;;;;;;13.12;93.78;101345.41;5017536;28;20061;-68
2021/08/27 06:03:59;;;;;;;11.98;2.35;;;;;;;13.16;93.58;101354.91;5015803;28;20050;-68
2021/08/27 06:06:28;;;;;;;8.25;1.63;;;;;;;13.21;93.51;101350.44;5020112;28;20127;-68
2021/08/27 06:08:54;;;;;;;8.75;1.83;;;;;;;13.28;93.67;101355.53;5016575;28;20045;-68
2021/08/27 06:11:21;;;;;;;8.63;1.92;;;;;;;13.40;93.21;101350.09;5017411;28;20054;-68
2021/08/27 06:13:47;;;;;;;9.65;1.83;;;;;;;13.47;92.91;101356.03;5008243;28;20112;-69
2021/08/27 06:16:14;;;;;;;7.10;1.95;;;;;;;13.49;92.36;101359.50;5010513;28;20523;-69
2021/08/27 06:18:41;;;;;;;8.05;1.80;;;;;;;13.60;92.59;101356.63;5017089;28;20050;-69
2021/08/27 06:21:07;;;;;;;10.73;1.70;;;;;;;13.73;91.84;101354.59;5010041;28;20522;-67
2021/08/27 06:23:35;;;;;;;9.68;1.88;;;;;;;13.75;91.75;101365.88;5018208;28;20053;-69
2021/08/27 06:26:02;;;;;;;10.27;1.98;;;;;;;13.73;91.78;101362.44;5020436;28;20068;-66
2021/08/27 06:28:28;;;;;;;8.95;1.90;;;;;;;13.79;91.79;101351.88;5020610;28;20050;-67
2021/08/27 06:30:54;;;;;;;9.60;1.67;;;;;;;13.78;91.57;101350.16;5016732;28;20057;-66
2021/08/27 06:33:21;;;;;;;10.52;2.05;;;;;;;13.75;91.42;101348.47;5013341;28;20120;-68
2021/08/27 06:35:47;;;;;;;7.38;1.95;;;;;;;13.80;91.27;101348.34;5013543;28;20046;-67
2021/08/27 06:38:24;;;;;;;12.27;1.90;;;;;;;13.75;91.21;101351.09;5014320;28;20049;-66
2021/08/27 06:40:54;;;;;;;10.23;2.00;;;;;;;13.78;91.27;101348.38;5016417;28;20387;-67
2021/08/27 06:43:20;;;;;;;9.73;2.00;;;;;;;13.85;90.34;101349.09;5019207;28;20507;-68
2021/08/27 06:45:47;;;;;;;11.32;1.98;;;;;;;13.88;90.44;101356.88;5015649;28;20049;-68
2021/08/27 06:48:13;;;;;;;6.40;2.00;;;;;;;13.92;90.66;101350.69;5014228;28;20041;-67
2021/08/27 06:50:40;;;;;;;12.07;1.80;;;;;;;14.02;90.41;101350.47;5012885;28;20054;-65
2021/08/27 06:53:07;;;;;;;10.35;2.65;;;;;;;14.16;90.22;101353.59;5012839;28;20053;-68
2021/08/27 06:55:34;;;;;;;8.63;1.65;;;;;;;14.24;89.99;101354.28;5015516;28;20065;-68
2021/08/27 06:58:02;;;;;;;8.90;1.52;;;;;;;14.18;89.73;101359.66;5022765;28;20442;-67
2021/08/27 07:00:29;;;;;;;11.45;1.95;;;;;;;14.17;89.93;101363.19;5021194;28;20057;-67
2021/08/27 07:02:55;;;;;;;8.90;1.42;;;;;;;14.18;89.82;101364.03;5020392;28;20046;-68
2021/08/27 07:05:22;;;;;;;6.88;1.77;;;;;;;14.25;89.42;101366.47;5020488;28;20046;-67
2021/08/27 07:07:48;;;;;;;9.40;2.53;;;;;;;14.27;89.93;101369.91;5022611;28;20050;-67
2021/08/27 07:10:15;;;;;;;9.45;1.77;;;;;;;14.25;89.41;101373.47;5017886;28;20053;-66
2021/08/27 07:12:41;;;;;;;7.68;1.60;;;;;;;14.30;88.99;101369.84;5020200;28;20164;-67
2021/08/27 07:15:10;;;;;;;11.57;1.60;;;;;;;14.33;89.06;101368.91;5022024;28;20466;-68
2021/08/27 07:17:37;;;;;;;10.57;2.08;;;;;;;14.44;88.95;101374.72;5013810;28;20049;-67
2021/08/27 07:20:04;;;;;;;8.57;1.90;;;;;;;14.50;89.19;101378.06;5014309;28;20061;-68
2021/08/27 07:22:30;;;;;;;6.15;1.70;;;;;;;14.61;88.46;101376.03;5020647;28;20080;-68
2021/08/27 07:24:57;;;;;;;7.88;1.40;;;;;;;14.66;88.06;101373.31;5020260;28;20050;-68
2021/08/27 07:27:23;;;;;;;8.80;1.77;;;;;;;14.76;87.56;101377.44;5020817;28;20046;-68
2021/08/27 07:29:50;;;;;;;7.78;1.92;;;;;;;14.81;87.81;101378.19;5019360;28;20050;-67
2021/08/27 07:32:17;;;;;;;9.90;1.65;;;;;;;14.90;88.03;101370.09;5016920;28;20115;-67
2021/08/27 07:34:44;;;;;;;7.28;1.33;;;;;;;15.01;86.11;101376.78;5019459;28;20064;-67
2021/08/27 07:37:12;;;;;;;7.43;1.75;;;;;;;15.01;86.81;101380.25;5021713;28;20045;-67
2021/08/27 07:39:39;;;;;;;7.82;1.48;;;;;;;15.00;86.50;101372.44;5020484;28;20108;-65
2021/08/27 07:42:06;;;;;;;5.95;1.88;;;;;;;15.13;87.10;101375.56;5018691;28;20514;-67
2021/08/27 07:44:33;;;;;;;7.15;1.15;;;;;;;15.34;85.59;101374.09;5019035;28;20067;-68
2021/08/27 07:47:00;;;;;;;7.85;1.45;;;;;;;15.36;85.99;101374.91;5018514;28;20480;-68
2021/08/27 07:49:27;;;;;;;9.77;2.45;;;;;;;15.45;85.75;101368.56;5015066;28;20412;-69
2021/08/27 07:51:56;;;;;;;4.22;1.30;;;;;;;15.48;85.77;101378.94;5019866;28;20056;-67
2021/08/27 07:54:23;;;;;;;5.78;1.45;;;;;;;15.57;85.58;101375.19;5016828;28;20137;-68
2021/08/27 07:56:50;;;;;;;7.07;1.30;;;;;;;15.61;84.85;101372.44;5020282;28;20064;-68
2021/08/27 07:59:17;;;;;;;6.03;1.35;;;;;;;15.77;83.63;101372.81;5021026;28;20056;-68
2021/08/27 08:01:43;;;;;;;5.38;1.20;;;;;;;15.89;83.13;101373.38;5020420;28;20487;-66
2021/08/27 08:04:10;;;;;;;7.00;1.38;;;;;;;15.93;82.29;101375.00;5019874;28;20585;-68
2021/08/27 08:06:38;;;;;;;6.53;1.30;;;;;;;15.99;81.98;101372.19;5014870;28;20047;-67
2021/08/27 08:09:05;;;;;;;6.32;1.60;;;;;;;15.91;80.06;101374.19;5023381;28;20057;-67
2021/08/27 08:11:32;;;;;;;5.88;1.40;;;;;;;15.77;80.93;101377.22;5016475;28;20100;-68
2021/08/27 08:13:58;;;;;;;4.55;1.23;;;;;;;15.79;80.42;101370.16;5017274;28;20041;-68
2021/08/27 08:16:25;;;;;;;4.15;1.13;;;;;;;15.74;81.32;101378.16;5011473;28;20046;-68
2021/08/27 08:18:51;;;;;;;8.00;1.45;;;;;;;15.84;80.96;101377.00;5014666;28;20050;-68
2021/08/27 08:21:22;;;;;;;3.40;1.10;;;;;;;16.00;79.97;101366.88;5014299;28;20052;-67
2021/08/27 08:23:50;;;;;;;4.55;1.23;;;;;;;16.19;79.83;101376.78;5016035;28;20049;-68
2021/08/27 08:26:17;;;;;;;7.93;2.47;;;;;;;16.27;79.36;101368.66;5015626;28;20080;-67
2021/08/27 08:28:44;;;;;;;6.80;1.30;;;;;;;16.34;79.53;101362.28;5017002;28;20104;-68
2021/08/27 08:31:16;;;;;;;6.25;1.23;;;;;;;16.26;79.25;101370.44;5012736;28;20420;-67
2021/08/27 08:33:43;;;;;;;7.32;1.40;;;;;;;16.37;79.33;101366.59;5012425;28;20046;-71
2021/08/27 08:36:09;;;;;;;8.60;1.42;;;;;;;16.53;77.38;101366.91;5006529;28;20049;-69
2021/08/27 08:38:36;;;;;;;9.48;1.70;;;;;;;16.42;77.62;101369.91;5006014;28;20046;-67
2021/08/27 08:41:05;;;;;;;6.65;1.50;;;;;;;16.38;78.23;101368.28;5004143;28;20046;-68
2021/08/27 08:43:31;;;;;;;8.70;2.20;;;;;;;16.54;77.87;101372.13;5013076;28;20101;-68
2021/08/27 08:45:58;;;;;;;9.48;2.60;;;;;;;16.55;77.54;101373.84;5015765;28;20064;-67
2021/08/27 08:48:26;;;;;;;8.27;2.03;;;;;;;16.70;77.17;101372.47;5016505;28;20037;-67
2021/08/27 08:50:54;;;;;;;7.60;1.38;;;;;;;16.78;76.29;101366.94;5014567;28;20935;-68
2021/08/27 08:53:23;;;;;;;9.90;1.98;;;;;;;16.87;76.44;101373.63;5013915;28;20100;-68
2021/08/27 08:55:51;;;;;;;5.47;1.55;;;;;;;16.93;77.01;101361.19;5013092;28;20054;-67
2021/08/27 08:58:19;;;;;;;10.90;1.95;;;;;;;17.12;75.82;101364.91;5013387;28;20057;-67
2021/08/27 09:00:45;;;;;;;9.55;1.55;;;;;;;17.25;75.57;101367.03;5014090;28;20042;-69
2021/08/27 09:03:12;;;;;;;10.13;1.48;;;;;;;17.23;74.30;101362.72;5019724;28;20419;-68
2021/08/27 09:05:40;;;;;;;6.57;1.50;;;;;;;17.07;75.56;101367.69;5017569;28;20049;-68
2021/08/27 09:08:07;;;;;;;7.32;1.67;;;;;;;16.97;75.11;101366.34;5012940;28;20507;-66
2021/08/27 09:10:41;;;;;;;8.55;1.60;;;;;;;16.84;75.50;101355.34;5013524;28;20061;-68
2021/08/27 09:13:08;;;;;;;6.65;1.27;;;;;;;17.06;74.51;101358.97;5016997;28;20045;-67
2021/08/27 09:15:36;;;;;;;8.93;1.85;;;;;;;17.24;73.97;101353.94;5008247;28;20057;-66
2021/08/27 09:18:06;;;;;;;5.35;1.33;;;;;;;17.43;74.20;101354.09;5008707;28;20045;-67
2021/08/27 09:20:32;;;;;;;8.80;1.70;;;;;;;17.65;73.29;101362.00;5011116;28;20057;-67
2021/08/27 09:23:00;;;;;;;5.68;1.40;;;;;;;17.72;72.49;101373.16;5009791;28;20141;-68
2021/08/27 09:25:28;;;;;;;8.40;1.23;;;;;;;17.75;71.10;101365.16;5009661;28;20042;-68
2021/08/27 09:28:08;;;;;;;6.82;1.50;;;;;;;17.68;70.86;101359.28;5008900;28;20060;-67
2021/08/27 09:30:38;;;;;;;7.00;1.10;;;;;;;17.72;70.32;101365.25;5012077;28;20053;-65
2021/08/27 09:33:09;;;;;;;5.68;1.48;;;;;;;17.61;70.72;101359.56;5008815;28;20121;-67
2021/08/27 09:35:36;;;;;;;6.30;1.58;;;;;;;17.55;70.04;101358.03;5011094;28;20112;-65
2021/08/27 09:38:02;;;;;;;5.72;1.75;;;;;;;17.40;70.78;101365.59;5011002;28;20041;-68
2021/08/27 09:40:32;;;;;;;6.38;1.42;;;;;;;17.30;71.82;101360.72;5008924;28;20515;-68
2021/08/27 09:43:00;;;;;;;8.23;1.20;;;;;;;17.12;73.34;101362.28;5008563;28;20064;-68
2021/08/27 09:45:36;;;;;;;4.20;1.48;;;;;;;17.04;73.50;101360.78;5007706;28;20081;-68
2021/08/27 09:48:05;;;;;;;10.23;2.53;;;;;;;17.07;73.26;101358.03;5008046;28;20165;-68
2021/08/27 09:50:33;;;;;;;7.03;1.10;;;;;;;17.17;73.25;101361.19;5009815;28;20053;-67
2021/08/27 09:53:01;;;;;;;7.22;1.50;;;;;;;17.32;73.11;101362.38;5005981;28;20046;-66
2021/08/27 09:55:29;;;;;;;6.10;1.73;;;;;;;17.31;72.59;101352.81;5003809;28;20053;-68
2021/08/27 09:58:04;;;;;;;7.50;1.95;;;;;;;17.25;71.45;101355.63;5007564;28;20042;-68
2021/08/27 10:00:33;;;;;;;;;;;;;;;17.34;71.50;101362.34;5010016;28;20125;-67
2021/08/27 10:03:03;;;;;;;6.28;1.20;;;;;;;17.35;70.72;101345.66;5007718;28;19921;-68
2021/08/27 10:05:38;;;;;;;5.18;1.33;;;;;;;17.35;70.43;101349.13;5016977;28;20485;-67
2021/08/27 10:08:15;;;;;;;6.10;1.08;;;;;;;17.43;71.12;101343.56;5005888;28;20046;-67
2021/08/27 10:10:42;;;;;;;4.97;1.40;;;;;;;17.61;70.41;101343.78;5005453;28;20061;-68
2021/08/27 10:13:10;;;;;;;7.10;1.75;;;;;;;17.64;69.12;101341.03;5010082;28;20419;-68
2021/08/27 10:15:36;;;;;;;11.38;1.83;;;;;;;17.68;69.89;101337.34;5007764;28;20050;-68
2021/08/27 10:18:08;;;;;;;13.10;2.28;;;;;;;17.64;70.45;101341.88;5003688;28;20050;-66
2021/08/27 10:20:35;;;;;;;9.15;1.75;;;;;;;17.48;73.28;101330.25;5006266;28;20088;-69
2021/08/27 10:23:01;;;;;;;6.32;1.45;;;;;;;17.37;72.81;101326.25;5015389;28;20049;-68
2021/08/27 10:25:28;;;;;;;6.72;1.83;;;;;;;17.33;72.23;101329.06;5009872;28;20050;-68
2021/08/27 10:27:55;;;;;;;13.52;1.48;;;;;;;17.12;72.58;101328.13;5015124;28;20051;-68
2021/08/27 10:30:50;;;;;;;8.55;1.40;;;;;;;17.17;72.47;101328.78;5012812;28;20164;-69
2021/08/27 10:33:18;;;;;;;7.75;1.55;;;;;;;17.28;72.79;101329.25;5011069;28;20901;-67
2021/08/27 10:35:48;;;;;;;8.40;1.55;;;;;;;17.43;73.30;101311.16;5009483;28;20058;-67
2021/08/27 10:38:43;;;;;;;8.23;1.70;;;;;;;17.83;71.84;101314.81;5014933;28;20487;-66
2021/08/27 10:41:12;;;;;;;8.30;1.98;;;;;;;18.08;68.71;101319.97;5013689;28;20054;-68
2021/08/27 10:43:53;;;;;;;6.97;1.48;;;;;;;18.04;67.96;101310.50;5013003;28;20049;-67
2021/08/27 10:46:20;;;;;;;6.68;1.50;;;;;;;17.89;69.81;101319.88;5019608;28;20463;-68
2021/08/27 10:48:52;;;;;;;5.88;1.38;;;;;;;17.67;72.33;101325.97;5009824;28;20054;-68
2021/08/27 10:51:35;;;;;;;3.65;1.13;;;;;;;17.48;73.22;101315.31;5008842;28;20060;-68
2021/08/27 10:54:02;;;;;;;7.20;1.60;;;;;;;17.47;75.31;101312.75;5008653;28;20054;-67
2021/08/27 10:56:47;;;;;;;10.98;1.63;;;;;;;17.44;75.44;101316.38;5007793;28;20065;-68
2021/08/27 10:59:15;;;;;;;6.32;1.17;;;;;;;17.60;75.55;101308.72;5013456;28;20078;-68
2021/08/27 11:01:43;;;;;;;7.30;1.67;;;;;;;17.83;73.57;101301.66;5005715;28;20060;-68
2021/08/27 11:04:20;;;;;;;7.10;1.45;;;;;;;18.31;71.56;101302.38;5003535;28;20050;-67
2021/08/27 11:06:50;;;;;;;9.32;1.58;;;;;;;18.48;69.01;101306.91;5015169;28;20428;-68
2021/08/27 11:09:22;;;;;;;6.65;1.30;;;;;;;18.34;70.09;101326.78;5009449;28;20133;-66
2021/08/27 11:12:08;;;;;;;8.18;1.50;;;;;;;17.85;76.14;101328.78;5012995;28;20046;-68
2021/08/27 11:14:35;;;;;;;7.57;1.55;;;;;;;17.31;80.35;101328.25;5012508;28;20825;-69
2021/08/27 11:17:05;;;;;;;11.73;1.50;;;;;;;16.97;82.13;101327.75;5006198;28;20050;-67
2021/08/27 11:19:34;;;;;;;8.27;1.35;;;;;;;16.89;82.87;101324.53;5007684;28;20100;-68
2021/08/27 11:22:26;;;;;;;6.95;1.30;;;;;;;16.84;83.73;101318.56;5009007;28;20046;-68
2021/08/27 11:25:22;;;;;;;7.72;1.27;;;;;;;16.84;84.56;101316.81;5014770;28;20057;-68
2021/08/27 11:28:10;;;;;;;6.88;1.30;;;;;;;16.91;84.29;101323.53;5013063;28;20571;-69
2021/08/27 11:30:37;;;;;;;8.32;1.38;;;;;;;16.93;83.02;101328.72;5003041;28;20054;-69